Airport View

Enter AWOS ICAO identifier for current METAR.

ex. KFNL

KRDK 112235Z AUTO 10007KT 10SM CLR 00/M07 A3031 RMK AO2

11 Dec 2019 22:48

Frequency: 119.775

Phone: 712-623-3220

Other Area AWOS: KSDA - KICL - KAIO - KCBF

TAF KOFF 111800Z 1118/1224 09010KT 9999 FEW250 QNH3040INS BECMG 1205/1206 16010KT 9999 FEW250 QNH3030INS BECMG 1209/1210 18010G15KT 9999 BKN020 620204 QNH3012INS TXM01/1218Z TNM04/1122Z